sensor_id;sensor_type;location;lat;lon;timestamp;temperature;humidity
5924;DHT22;2987;50.884;14.818;2023-07-30T00:02:21;14.80;99.90
5924;DHT22;2987;50.884;14.818;2023-07-30T00:04:47;14.90;99.90
5924;DHT22;2987;50.884;14.818;2023-07-30T00:07:15;14.90;99.90
5924;DHT22;2987;50.884;14.818;2023-07-30T00:09:41;14.90;99.90
5924;DHT22;2987;50.884;14.818;2023-07-30T00:12:08;14.90;99.90
5924;DHT22;2987;50.884;14.818;2023-07-30T00:14:34;14.90;99.90
5924;DHT22;2987;50.884;14.818;2023-07-30T00:17:00;14.90;99.90
5924;DHT22;2987;50.884;14.818;2023-07-30T00:19:27;15.00;99.90
5924;DHT22;2987;50.884;14.818;2023-07-30T00:21:53;14.90;99.90
5924;DHT22;2987;50.884;14.818;2023-07-30T00:24:19;15.00;99.90
5924;DHT22;2987;50.884;14.818;2023-07-30T00:26:45;15.00;99.90
5924;DHT22;2987;50.884;14.818;2023-07-30T00:29:11;14.90;99.90
5924;DHT22;2987;50.884;14.818;2023-07-30T00:31:37;14.90;99.90
5924;DHT22;2987;50.884;14.818;2023-07-30T00:34:03;15.00;99.90
5924;DHT22;2987;50.884;14.818;2023-07-30T00:36:29;15.00;99.90
5924;DHT22;2987;50.884;14.818;2023-07-30T00:38:54;15.00;99.90
5924;DHT22;2987;50.884;14.818;2023-07-30T00:41:20;15.10;99.90
5924;DHT22;2987;50.884;14.818;2023-07-30T00:43:46;15.00;99.90
5924;DHT22;2987;50.884;14.818;2023-07-30T00:46:14;15.10;99.90
5924;DHT22;2987;50.884;14.818;2023-07-30T00:48:41;15.10;99.90
5924;DHT22;2987;50.884;14.818;2023-07-30T00:51:07;15.00;99.90
5924;DHT22;2987;50.884;14.818;2023-07-30T00:53:34;15.00;99.90
5924;DHT22;2987;50.884;14.818;2023-07-30T00:56:02;15.00;99.90
5924;DHT22;2987;50.884;14.818;2023-07-30T00:58:28;14.90;99.90
5924;DHT22;2987;50.884;14.818;2023-07-30T01:00:57;14.90;99.90
5924;DHT22;2987;50.884;14.818;2023-07-30T01:03:23;14.90;99.90
5924;DHT22;2987;50.884;14.818;2023-07-30T01:05:50;14.90;99.90
5924;DHT22;2987;50.884;14.818;2023-07-30T01:08:16;14.90;99.90
5924;DHT22;2987;50.884;14.818;2023-07-30T01:10:43;14.90;99.90
5924;DHT22;2987;50.884;14.818;2023-07-30T01:13:09;14.90;99.90
5924;DHT22;2987;50.884;14.818;2023-07-30T01:15:36;14.80;99.90
5924;DHT22;2987;50.884;14.818;2023-07-30T01:18:03;14.80;99.90
5924;DHT22;2987;50.884;14.818;2023-07-30T01:20:31;14.80;99.90
5924;DHT22;2987;50.884;14.818;2023-07-30T01:22:58;14.80;99.90
5924;DHT22;2987;50.884;14.818;2023-07-30T01:25:29;14.80;99.90
5924;DHT22;2987;50.884;14.818;2023-07-30T01:27:59;14.80;99.90
5924;DHT22;2987;50.884;14.818;2023-07-30T01:30:34;14.80;99.90
5924;DHT22;2987;50.884;14.818;2023-07-30T01:33:03;14.80;99.90
5924;DHT22;2987;50.884;14.818;2023-07-30T01:35:31;14.80;99.90
5924;DHT22;2987;50.884;14.818;2023-07-30T01:37:58;14.80;99.90
5924;DHT22;2987;50.884;14.818;2023-07-30T01:40:25;14.80;99.90
5924;DHT22;2987;50.884;14.818;2023-07-30T01:42:51;14.90;99.90
5924;DHT22;2987;50.884;14.818;2023-07-30T01:45:17;14.80;99.90
5924;DHT22;2987;50.884;14.818;2023-07-30T01:47:44;14.80;99.90
5924;DHT22;2987;50.884;14.818;2023-07-30T01:50:10;14.80;99.90
5924;DHT22;2987;50.884;14.818;2023-07-30T01:52:36;14.80;99.90
5924;DHT22;2987;50.884;14.818;2023-07-30T01:55:02;14.70;99.90
5924;DHT22;2987;50.884;14.818;2023-07-30T01:57:28;14.70;99.90
5924;DHT22;2987;50.884;14.818;2023-07-30T01:59:54;14.70;99.90
5924;DHT22;2987;50.884;14.818;2023-07-30T02:02:20;14.70;99.90
5924;DHT22;2987;50.884;14.818;2023-07-30T02:04:46;14.60;99.90
5924;DHT22;2987;50.884;14.818;2023-07-30T02:07:12;14.60;99.90
5924;DHT22;2987;50.884;14.818;2023-07-30T02:09:38;14.60;99.90
5924;DHT22;2987;50.884;14.818;2023-07-30T02:12:04;14.60;99.90
5924;DHT22;2987;50.884;14.818;2023-07-30T02:14:30;14.50;99.90
5924;DHT22;2987;50.884;14.818;2023-07-30T02:17:01;14.50;99.90
5924;DHT22;2987;50.884;14.818;2023-07-30T02:19:27;14.50;99.90
5924;DHT22;2987;50.884;14.818;2023-07-30T02:21:53;14.50;99.90
5924;DHT22;2987;50.884;14.818;2023-07-30T02:24:19;14.40;99.90
5924;DHT22;2987;50.884;14.818;2023-07-30T02:26:45;14.40;99.90
5924;DHT22;2987;50.884;14.818;2023-07-30T02:29:10;14.40;99.90
5924;DHT22;2987;50.884;14.818;2023-07-30T02:31:36;14.30;99.90
5924;DHT22;2987;50.884;14.818;2023-07-30T02:34:02;14.30;99.90
5924;DHT22;2987;50.884;14.818;2023-07-30T02:36:28;14.30;99.90
5924;DHT22;2987;50.884;14.818;2023-07-30T02:38:55;14.20;99.90
5924;DHT22;2987;50.884;14.818;2023-07-30T02:41:21;14.20;99.90
5924;DHT22;2987;50.884;14.818;2023-07-30T02:43:46;14.20;99.90
5924;DHT22;2987;50.884;14.818;2023-07-30T02:46:12;14.20;99.90
5924;DHT22;2987;50.884;14.818;2023-07-30T02:48:39;14.10;99.90
5924;DHT22;2987;50.884;14.818;2023-07-30T02:51:05;14.00;99.90
5924;DHT22;2987;50.884;14.818;2023-07-30T02:53:31;14.00;99.90
5924;DHT22;2987;50.884;14.818;2023-07-30T02:55:57;14.00;99.90
5924;DHT22;2987;50.884;14.818;2023-07-30T02:58:23;14.00;99.90
5924;DHT22;2987;50.884;14.818;2023-07-30T03:00:49;13.90;99.90
5924;DHT22;2987;50.884;14.818;2023-07-30T03:03:16;13.90;99.90
5924;DHT22;2987;50.884;14.818;2023-07-30T03:05:42;13.90;99.90
5924;DHT22;2987;50.884;14.818;2023-07-30T03:08:09;13.90;99.90
5924;DHT22;2987;50.884;14.818;2023-07-30T03:10:36;13.90;99.90
5924;DHT22;2987;50.884;14.818;2023-07-30T03:13:02;13.80;99.90
5924;DHT22;2987;50.884;14.818;2023-07-30T03:15:28;13.80;99.90
5924;DHT22;2987;50.884;14.818;2023-07-30T03:17:54;13.80;99.90
5924;DHT22;2987;50.884;14.818;2023-07-30T03:20:20;13.80;99.90
5924;DHT22;2987;50.884;14.818;2023-07-30T03:22:46;13.80;99.90
5924;DHT22;2987;50.884;14.818;2023-07-30T03:25:12;13.70;99.90
5924;DHT22;2987;50.884;14.818;2023-07-30T03:27:38;13.70;99.90
5924;DHT22;2987;50.884;14.818;2023-07-30T03:30:05;13.70;99.90
5924;DHT22;2987;50.884;14.818;2023-07-30T03:32:31;13.70;99.90
5924;DHT22;2987;50.884;14.818;2023-07-30T03:34:57;13.70;99.90
5924;DHT22;2987;50.884;14.818;2023-07-30T03:37:22;13.60;99.90
5924;DHT22;2987;50.884;14.818;2023-07-30T03:39:48;13.70;99.90
5924;DHT22;2987;50.884;14.818;2023-07-30T03:42:14;13.60;99.90
5924;DHT22;2987;50.884;14.818;2023-07-30T03:44:40;13.60;99.90
5924;DHT22;2987;50.884;14.818;2023-07-30T03:49:33;13.60;99.90
5924;DHT22;2987;50.884;14.818;2023-07-30T03:51:59;13.60;99.90
5924;DHT22;2987;50.884;14.818;2023-07-30T03:54:25;13.60;99.90
5924;DHT22;2987;50.884;14.818;2023-07-30T03:56:53;13.60;99.90
5924;DHT22;2987;50.884;14.818;2023-07-30T03:59:19;13.60;99.90
5924;DHT22;2987;50.884;14.818;2023-07-30T04:01:44;13.70;99.90
5924;DHT22;2987;50.884;14.818;2023-07-30T04:04:10;13.70;99.90
5924;DHT22;2987;50.884;14.818;2023-07-30T04:06:36;13.70;99.90
5924;DHT22;2987;50.884;14.818;2023-07-30T04:09:02;13.70;99.90
5924;DHT22;2987;50.884;14.818;2023-07-30T04:11:29;13.70;99.90
5924;DHT22;2987;50.884;14.818;2023-07-30T04:13:55;13.80;99.90
5924;DHT22;2987;50.884;14.818;2023-07-30T04:16:22;13.80;99.90
5924;DHT22;2987;50.884;14.818;2023-07-30T04:18:48;13.90;99.90
5924;DHT22;2987;50.884;14.818;2023-07-30T04:21:14;14.00;99.90
5924;DHT22;2987;50.884;14.818;2023-07-30T04:23:41;14.10;99.90
5924;DHT22;2987;50.884;14.818;2023-07-30T04:26:07;14.20;99.90
5924;DHT22;2987;50.884;14.818;2023-07-30T04:28:33;14.30;99.90
5924;DHT22;2987;50.884;14.818;2023-07-30T04:30:59;14.30;99.90
5924;DHT22;2987;50.884;14.818;2023-07-30T04:33:25;14.40;99.90
5924;DHT22;2987;50.884;14.818;2023-07-30T04:35:53;14.50;99.90
5924;DHT22;2987;50.884;14.818;2023-07-30T04:38:19;14.60;99.90
5924;DHT22;2987;50.884;14.818;2023-07-30T04:40:46;14.60;99.90
5924;DHT22;2987;50.884;14.818;2023-07-30T04:43:13;14.70;99.90
5924;DHT22;2987;50.884;14.818;2023-07-30T04:45:42;14.80;99.90
5924;DHT22;2987;50.884;14.818;2023-07-30T04:48:08;14.80;99.90
5924;DHT22;2987;50.884;14.818;2023-07-30T04:50:34;15.00;99.90
5924;DHT22;2987;50.884;14.818;2023-07-30T04:53:00;15.00;99.90
5924;DHT22;2987;50.884;14.818;2023-07-30T04:55:26;15.10;99.90
5924;DHT22;2987;50.884;14.818;2023-07-30T04:57:52;15.20;99.90
5924;DHT22;2987;50.884;14.818;2023-07-30T05:00:18;15.30;99.90
5924;DHT22;2987;50.884;14.818;2023-07-30T05:02:44;15.40;99.90
5924;DHT22;2987;50.884;14.818;2023-07-30T05:05:10;15.50;99.90
5924;DHT22;2987;50.884;14.818;2023-07-30T05:07:36;15.60;99.90
5924;DHT22;2987;50.884;14.818;2023-07-30T05:10:03;15.70;99.90
5924;DHT22;2987;50.884;14.818;2023-07-30T05:12:32;15.80;99.90
5924;DHT22;2987;50.884;14.818;2023-07-30T05:14:58;15.90;99.90
5924;DHT22;2987;50.884;14.818;2023-07-30T05:17:24;16.00;99.90
5924;DHT22;2987;50.884;14.818;2023-07-30T05:19:50;16.00;99.90
5924;DHT22;2987;50.884;14.818;2023-07-30T05:22:16;16.10;99.90
5924;DHT22;2987;50.884;14.818;2023-07-30T05:24:42;16.20;99.90
5924;DHT22;2987;50.884;14.818;2023-07-30T05:27:07;16.20;99.90
5924;DHT22;2987;50.884;14.818;2023-07-30T05:29:33;16.30;99.90
5924;DHT22;2987;50.884;14.818;2023-07-30T05:31:59;16.30;99.90
5924;DHT22;2987;50.884;14.818;2023-07-30T05:34:25;16.50;99.90
5924;DHT22;2987;50.884;14.818;2023-07-30T05:36:53;16.50;99.90
5924;DHT22;2987;50.884;14.818;2023-07-30T05:39:18;16.70;99.90
5924;DHT22;2987;50.884;14.818;2023-07-30T05:41:44;16.80;99.90
5924;DHT22;2987;50.884;14.818;2023-07-30T05:44:10;16.90;99.90
5924;DHT22;2987;50.884;14.818;2023-07-30T05:46:36;17.00;99.90
5924;DHT22;2987;50.884;14.818;2023-07-30T05:49:02;17.10;99.90
5924;DHT22;2987;50.884;14.818;2023-07-30T05:51:29;17.20;99.90
5924;DHT22;2987;50.884;14.818;2023-07-30T05:53:55;17.20;99.90
5924;DHT22;2987;50.884;14.818;2023-07-30T05:56:20;17.30;99.90
5924;DHT22;2987;50.884;14.818;2023-07-30T05:58:46;17.40;99.90
5924;DHT22;2987;50.884;14.818;2023-07-30T06:01:12;17.50;99.90
5924;DHT22;2987;50.884;14.818;2023-07-30T06:03:38;17.50;99.90
5924;DHT22;2987;50.884;14.818;2023-07-30T06:06:04;17.60;99.90
5924;DHT22;2987;50.884;14.818;2023-07-30T06:08:30;17.60;99.90
5924;DHT22;2987;50.884;14.818;2023-07-30T06:11:01;17.70;99.90
5924;DHT22;2987;50.884;14.818;2023-07-30T06:13:29;17.70;99.90
5924;DHT22;2987;50.884;14.818;2023-07-30T06:15:55;17.70;99.90
5924;DHT22;2987;50.884;14.818;2023-07-30T06:18:21;17.80;99.90
5924;DHT22;2987;50.884;14.818;2023-07-30T06:20:47;17.80;99.90
5924;DHT22;2987;50.884;14.818;2023-07-30T06:23:13;17.90;99.90
5924;DHT22;2987;50.884;14.818;2023-07-30T06:25:39;17.90;99.90
5924;DHT22;2987;50.884;14.818;2023-07-30T06:28:06;18.00;99.90
5924;DHT22;2987;50.884;14.818;2023-07-30T06:30:32;17.90;99.90
5924;DHT22;2987;50.884;14.818;2023-07-30T06:32:58;18.00;99.90
5924;DHT22;2987;50.884;14.818;2023-07-30T06:35:24;18.00;99.90
5924;DHT22;2987;50.884;14.818;2023-07-30T06:37:50;18.00;99.90
5924;DHT22;2987;50.884;14.818;2023-07-30T06:40:16;18.30;99.90
5924;DHT22;2987;50.884;14.818;2023-07-30T06:42:42;18.60;99.90
5924;DHT22;2987;50.884;14.818;2023-07-30T06:45:08;19.10;99.90
5924;DHT22;2987;50.884;14.818;2023-07-30T06:47:34;19.50;99.90
5924;DHT22;2987;50.884;14.818;2023-07-30T06:50:00;19.90;99.90
5924;DHT22;2987;50.884;14.818;2023-07-30T06:52:26;20.30;99.90
5924;DHT22;2987;50.884;14.818;2023-07-30T06:54:52;20.80;99.90
5924;DHT22;2987;50.884;14.818;2023-07-30T06:57:18;21.40;99.90
5924;DHT22;2987;50.884;14.818;2023-07-30T06:59:44;21.60;99.90
5924;DHT22;2987;50.884;14.818;2023-07-30T07:02:10;21.80;99.90
5924;DHT22;2987;50.884;14.818;2023-07-30T07:04:36;21.70;99.90
5924;DHT22;2987;50.884;14.818;2023-07-30T07:07:02;21.80;99.90
5924;DHT22;2987;50.884;14.818;2023-07-30T07:09:29;21.80;99.90
5924;DHT22;2987;50.884;14.818;2023-07-30T07:11:55;21.70;99.90
5924;DHT22;2987;50.884;14.818;2023-07-30T07:14:21;21.50;99.90
5924;DHT22;2987;50.884;14.818;2023-07-30T07:16:48;21.40;99.90
5924;DHT22;2987;50.884;14.818;2023-07-30T07:19:14;21.20;99.90
5924;DHT22;2987;50.884;14.818;2023-07-30T07:21:40;21.00;99.90
5924;DHT22;2987;50.884;14.818;2023-07-30T07:24:06;20.70;99.90
5924;DHT22;2987;50.884;14.818;2023-07-30T07:26:32;20.50;99.90
5924;DHT22;2987;50.884;14.818;2023-07-30T07:28:58;20.10;99.90
5924;DHT22;2987;50.884;14.818;2023-07-30T07:31:24;19.90;99.90
5924;DHT22;2987;50.884;14.818;2023-07-30T07:33:49;19.70;99.90
5924;DHT22;2987;50.884;14.818;2023-07-30T07:36:15;19.50;99.90
5924;DHT22;2987;50.884;14.818;2023-07-30T07:38:41;19.50;99.90
5924;DHT22;2987;50.884;14.818;2023-07-30T07:41:13;19.50;99.90
5924;DHT22;2987;50.884;14.818;2023-07-30T07:43:39;19.40;99.90
5924;DHT22;2987;50.884;14.818;2023-07-30T07:46:05;19.40;99.90
5924;DHT22;2987;50.884;14.818;2023-07-30T07:48:35;19.30;99.90
5924;DHT22;2987;50.884;14.818;2023-07-30T07:51:01;19.20;99.90
5924;DHT22;2987;50.884;14.818;2023-07-30T07:53:28;19.00;99.90
5924;DHT22;2987;50.884;14.818;2023-07-30T07:55:54;19.00;99.90
5924;DHT22;2987;50.884;14.818;2023-07-30T07:58:19;19.00;99.90
5924;DHT22;2987;50.884;14.818;2023-07-30T08:00:45;19.00;99.90
5924;DHT22;2987;50.884;14.818;2023-07-30T08:03:12;19.00;99.90
5924;DHT22;2987;50.884;14.818;2023-07-30T08:05:37;19.00;99.90
5924;DHT22;2987;50.884;14.818;2023-07-30T08:08:03;19.00;99.90
5924;DHT22;2987;50.884;14.818;2023-07-30T08:12:55;19.10;99.90
5924;DHT22;2987;50.884;14.818;2023-07-30T08:15:21;19.10;99.90
5924;DHT22;2987;50.884;14.818;2023-07-30T08:17:47;19.10;99.90
5924;DHT22;2987;50.884;14.818;2023-07-30T08:20:13;19.10;99.90
5924;DHT22;2987;50.884;14.818;2023-07-30T08:22:39;19.00;99.90
5924;DHT22;2987;50.884;14.818;2023-07-30T08:25:05;19.10;99.90
5924;DHT22;2987;50.884;14.818;2023-07-30T08:27:31;19.10;99.90
5924;DHT22;2987;50.884;14.818;2023-07-30T08:29:57;19.10;99.90
5924;DHT22;2987;50.884;14.818;2023-07-30T08:32:23;19.10;99.90
5924;DHT22;2987;50.884;14.818;2023-07-30T08:34:49;19.20;99.90
5924;DHT22;2987;50.884;14.818;2023-07-30T08:37:15;19.30;99.90
5924;DHT22;2987;50.884;14.818;2023-07-30T08:39:41;19.30;99.90
5924;DHT22;2987;50.884;14.818;2023-07-30T08:42:07;19.30;99.90
5924;DHT22;2987;50.884;14.818;2023-07-30T08:44:33;19.40;99.90
5924;DHT22;2987;50.884;14.818;2023-07-30T08:46:59;19.50;99.90
5924;DHT22;2987;50.884;14.818;2023-07-30T08:49:25;19.70;99.90
5924;DHT22;2987;50.884;14.818;2023-07-30T08:54:20;20.10;99.90
5924;DHT22;2987;50.884;14.818;2023-07-30T08:56:48;20.20;99.90
5924;DHT22;2987;50.884;14.818;2023-07-30T08:59:15;20.30;99.90
5924;DHT22;2987;50.884;14.818;2023-07-30T09:01:43;20.50;99.90
5924;DHT22;2987;50.884;14.818;2023-07-30T09:04:12;20.50;99.90
5924;DHT22;2987;50.884;14.818;2023-07-30T09:06:40;20.60;99.90
5924;DHT22;2987;50.884;14.818;2023-07-30T09:09:07;20.60;99.90
5924;DHT22;2987;50.884;14.818;2023-07-30T09:11:35;20.60;99.90
5924;DHT22;2987;50.884;14.818;2023-07-30T09:14:01;20.80;99.90
5924;DHT22;2987;50.884;14.818;2023-07-30T09:16:28;21.00;99.90
5924;DHT22;2987;50.884;14.818;2023-07-30T09:18:54;21.00;99.90
5924;DHT22;2987;50.884;14.818;2023-07-30T09:21:30;21.00;99.90
5924;DHT22;2987;50.884;14.818;2023-07-30T09:23:57;21.10;99.90
5924;DHT22;2987;50.884;14.818;2023-07-30T09:26:24;21.30;99.90
5924;DHT22;2987;50.884;14.818;2023-07-30T09:28:50;21.70;99.90
5924;DHT22;2987;50.884;14.818;2023-07-30T09:31:15;22.00;99.90
5924;DHT22;2987;50.884;14.818;2023-07-30T09:33:41;22.10;99.90
5924;DHT22;2987;50.884;14.818;2023-07-30T09:36:08;22.10;99.90
5924;DHT22;2987;50.884;14.818;2023-07-30T09:38:43;22.20;99.90
5924;DHT22;2987;50.884;14.818;2023-07-30T09:41:10;22.50;99.90
5924;DHT22;2987;50.884;14.818;2023-07-30T09:43:37;22.70;99.90
5924;DHT22;2987;50.884;14.818;2023-07-30T09:46:05;22.90;99.90
5924;DHT22;2987;50.884;14.818;2023-07-30T09:48:32;23.10;99.90
5924;DHT22;2987;50.884;14.818;2023-07-30T09:51:01;23.20;99.90
5924;DHT22;2987;50.884;14.818;2023-07-30T09:53:30;23.40;99.90
5924;DHT22;2987;50.884;14.818;2023-07-30T09:56:02;23.60;99.90
5924;DHT22;2987;50.884;14.818;2023-07-30T09:58:29;23.90;99.90
5924;DHT22;2987;50.884;14.818;2023-07-30T10:00:59;24.10;99.90
5924;DHT22;2987;50.884;14.818;2023-07-30T10:03:27;24.30;99.90
5924;DHT22;2987;50.884;14.818;2023-07-30T10:06:00;24.40;99.90
5924;DHT22;2987;50.884;14.818;2023-07-30T10:08:31;24.50;99.90
5924;DHT22;2987;50.884;14.818;2023-07-30T10:10:58;24.60;99.90
5924;DHT22;2987;50.884;14.818;2023-07-30T10:13:27;24.70;99.90
5924;DHT22;2987;50.884;14.818;2023-07-30T10:15:52;24.70;99.90
5924;DHT22;2987;50.884;14.818;2023-07-30T10:18:18;24.60;99.90
5924;DHT22;2987;50.884;14.818;2023-07-30T10:20:52;24.30;99.90
5924;DHT22;2987;50.884;14.818;2023-07-30T10:23:20;24.20;99.90
5924;DHT22;2987;50.884;14.818;2023-07-30T10:25:49;24.20;99.90
5924;DHT22;2987;50.884;14.818;2023-07-30T10:28:32;24.20;99.90
5924;DHT22;2987;50.884;14.818;2023-07-30T10:31:02;24.40;99.90
5924;DHT22;2987;50.884;14.818;2023-07-30T10:33:47;24.40;99.90
5924;DHT22;2987;50.884;14.818;2023-07-30T10:36:13;24.50;99.90
5924;DHT22;2987;50.884;14.818;2023-07-30T10:38:40;24.40;99.90
5924;DHT22;2987;50.884;14.818;2023-07-30T10:41:10;24.30;99.90
5924;DHT22;2987;50.884;14.818;2023-07-30T10:43:41;24.10;99.90
5924;DHT22;2987;50.884;14.818;2023-07-30T10:46:10;23.90;99.90
5924;DHT22;2987;50.884;14.818;2023-07-30T10:48:38;23.80;99.90
5924;DHT22;2987;50.884;14.818;2023-07-30T10:51:08;23.90;99.90
5924;DHT22;2987;50.884;14.818;2023-07-30T10:53:34;23.90;99.90
5924;DHT22;2987;50.884;14.818;2023-07-30T10:56:06;24.10;99.90
5924;DHT22;2987;50.884;14.818;2023-07-30T10:58:34;24.40;99.90
5924;DHT22;2987;50.884;14.818;2023-07-30T11:01:04;24.50;99.90
5924;DHT22;2987;50.884;14.818;2023-07-30T11:03:30;24.50;99.90
5924;DHT22;2987;50.884;14.818;2023-07-30T11:05:58;24.60;99.90
5924;DHT22;2987;50.884;14.818;2023-07-30T11:08:34;24.60;99.90
5924;DHT22;2987;50.884;14.818;2023-07-30T11:11:03;24.90;99.90
5924;DHT22;2987;50.884;14.818;2023-07-30T11:13:29;25.10;99.90
5924;DHT22;2987;50.884;14.818;2023-07-30T11:15:55;25.00;99.90
5924;DHT22;2987;50.884;14.818;2023-07-30T11:18:21;25.30;99.90
5924;DHT22;2987;50.884;14.818;2023-07-30T11:20:47;25.40;99.90
5924;DHT22;2987;50.884;14.818;2023-07-30T11:23:19;25.50;99.90
5924;DHT22;2987;50.884;14.818;2023-07-30T11:25:47;25.60;99.90
5924;DHT22;2987;50.884;14.818;2023-07-30T11:28:14;25.60;99.90
5924;DHT22;2987;50.884;14.818;2023-07-30T11:30:40;25.60;99.90
5924;DHT22;2987;50.884;14.818;2023-07-30T11:33:06;25.70;99.90
5924;DHT22;2987;50.884;14.818;2023-07-30T11:35:32;25.70;99.90
5924;DHT22;2987;50.884;14.818;2023-07-30T11:37:58;25.90;99.90
5924;DHT22;2987;50.884;14.818;2023-07-30T11:40:25;26.20;99.90
5924;DHT22;2987;50.884;14.818;2023-07-30T11:42:51;26.10;99.90
5924;DHT22;2987;50.884;14.818;2023-07-30T11:45:20;26.20;99.90
5924;DHT22;2987;50.884;14.818;2023-07-30T11:47:47;26.50;99.90
5924;DHT22;2987;50.884;14.818;2023-07-30T11:50:14;26.50;99.90
5924;DHT22;2987;50.884;14.818;2023-07-30T11:52:56;26.50;99.90
5924;DHT22;2987;50.884;14.818;2023-07-30T11:55:23;26.70;99.90
5924;DHT22;2987;50.884;14.818;2023-07-30T11:57:51;26.60;99.90
5924;DHT22;2987;50.884;14.818;2023-07-30T12:00:20;26.50;99.90
5924;DHT22;2987;50.884;14.818;2023-07-30T12:02:47;26.30;99.90
5924;DHT22;2987;50.884;14.818;2023-07-30T12:05:13;26.10;99.90
5924;DHT22;2987;50.884;14.818;2023-07-30T12:07:41;26.20;99.90
5924;DHT22;2987;50.884;14.818;2023-07-30T12:10:09;26.30;99.90
5924;DHT22;2987;50.884;14.818;2023-07-30T12:12:36;26.00;99.90
5924;DHT22;2987;50.884;14.818;2023-07-30T12:15:02;25.80;99.90
5924;DHT22;2987;50.884;14.818;2023-07-30T12:17:35;25.60;99.90
5924;DHT22;2987;50.884;14.818;2023-07-30T12:20:01;25.60;99.90
5924;DHT22;2987;50.884;14.818;2023-07-30T12:22:34;25.50;99.90
5924;DHT22;2987;50.884;14.818;2023-07-30T12:25:02;25.50;99.90
5924;DHT22;2987;50.884;14.818;2023-07-30T12:27:29;25.30;99.90
5924;DHT22;2987;50.884;14.818;2023-07-30T12:29:55;25.10;99.90
5924;DHT22;2987;50.884;14.818;2023-07-30T12:32:21;25.00;99.90
5924;DHT22;2987;50.884;14.818;2023-07-30T12:34:47;24.70;99.90
5924;DHT22;2987;50.884;14.818;2023-07-30T12:37:14;24.40;99.90
5924;DHT22;2987;50.884;14.818;2023-07-30T12:39:40;24.10;99.90
5924;DHT22;2987;50.884;14.818;2023-07-30T12:42:06;23.80;99.90
5924;DHT22;2987;50.884;14.818;2023-07-30T12:44:32;23.70;99.90
5924;DHT22;2987;50.884;14.818;2023-07-30T12:46:58;23.60;99.90
5924;DHT22;2987;50.884;14.818;2023-07-30T12:49:24;23.50;99.90
5924;DHT22;2987;50.884;14.818;2023-07-30T12:51:50;23.50;99.90
5924;DHT22;2987;50.884;14.818;2023-07-30T12:54:16;23.30;99.90
5924;DHT22;2987;50.884;14.818;2023-07-30T12:56:42;23.20;99.90
5924;DHT22;2987;50.884;14.818;2023-07-30T12:59:08;23.10;99.90
5924;DHT22;2987;50.884;14.818;2023-07-30T13:01:34;23.10;99.90
5924;DHT22;2987;50.884;14.818;2023-07-30T13:04:00;23.00;99.90
5924;DHT22;2987;50.884;14.818;2023-07-30T13:06:26;22.90;99.90
5924;DHT22;2987;50.884;14.818;2023-07-30T13:08:52;22.80;99.90
5924;DHT22;2987;50.884;14.818;2023-07-30T13:11:19;22.60;99.90
5924;DHT22;2987;50.884;14.818;2023-07-30T13:13:45;22.50;99.90
5924;DHT22;2987;50.884;14.818;2023-07-30T13:16:11;22.50;99.90
5924;DHT22;2987;50.884;14.818;2023-07-30T13:18:37;22.50;99.90
5924;DHT22;2987;50.884;14.818;2023-07-30T13:21:03;22.70;99.90
5924;DHT22;2987;50.884;14.818;2023-07-30T13:23:29;22.90;99.90
5924;DHT22;2987;50.884;14.818;2023-07-30T13:25:56;23.20;99.90
5924;DHT22;2987;50.884;14.818;2023-07-30T13:28:22;23.50;99.90
5924;DHT22;2987;50.884;14.818;2023-07-30T13:30:48;23.70;99.90
5924;DHT22;2987;50.884;14.818;2023-07-30T13:33:16;23.90;99.90
5924;DHT22;2987;50.884;14.818;2023-07-30T13:35:42;24.20;99.90
5924;DHT22;2987;50.884;14.818;2023-07-30T13:38:08;24.40;99.90
5924;DHT22;2987;50.884;14.818;2023-07-30T13:40:34;24.50;99.90
5924;DHT22;2987;50.884;14.818;2023-07-30T13:43:00;24.40;99.90
5924;DHT22;2987;50.884;14.818;2023-07-30T13:45:26;24.30;99.90
5924;DHT22;2987;50.884;14.818;2023-07-30T13:47:52;24.40;99.90
5924;DHT22;2987;50.884;14.818;2023-07-30T13:50:18;24.30;99.90
5924;DHT22;2987;50.884;14.818;2023-07-30T13:52:44;24.20;99.90
5924;DHT22;2987;50.884;14.818;2023-07-30T13:55:10;24.10;99.90
5924;DHT22;2987;50.884;14.818;2023-07-30T13:57:37;24.00;99.90
5924;DHT22;2987;50.884;14.818;2023-07-30T14:00:03;23.90;99.90
5924;DHT22;2987;50.884;14.818;2023-07-30T14:02:30;23.90;99.90
5924;DHT22;2987;50.884;14.818;2023-07-30T14:04:56;24.00;99.90
5924;DHT22;2987;50.884;14.818;2023-07-30T14:07:22;24.40;99.90
5924;DHT22;2987;50.884;14.818;2023-07-30T14:09:48;24.60;99.90
5924;DHT22;2987;50.884;14.818;2023-07-30T14:12:14;24.80;99.90
5924;DHT22;2987;50.884;14.818;2023-07-30T14:14:40;24.80;99.90
5924;DHT22;2987;50.884;14.818;2023-07-30T14:17:06;24.70;99.90
5924;DHT22;2987;50.884;14.818;2023-07-30T14:19:33;24.70;99.90
5924;DHT22;2987;50.884;14.818;2023-07-30T14:21:59;24.60;99.90
5924;DHT22;2987;50.884;14.818;2023-07-30T14:24:25;24.40;99.90
5924;DHT22;2987;50.884;14.818;2023-07-30T14:26:51;24.20;99.90
5924;DHT22;2987;50.884;14.818;2023-07-30T14:29:17;24.10;99.90
5924;DHT22;2987;50.884;14.818;2023-07-30T14:31:43;24.00;99.90
5924;DHT22;2987;50.884;14.818;2023-07-30T14:34:09;24.00;99.90
5924;DHT22;2987;50.884;14.818;2023-07-30T14:36:35;24.00;99.90
5924;DHT22;2987;50.884;14.818;2023-07-30T14:39:00;24.00;99.90
5924;DHT22;2987;50.884;14.818;2023-07-30T14:41:26;24.10;99.90
5924;DHT22;2987;50.884;14.818;2023-07-30T14:43:52;24.10;99.90
5924;DHT22;2987;50.884;14.818;2023-07-30T14:46:18;24.10;99.90
5924;DHT22;2987;50.884;14.818;2023-07-30T14:48:44;24.20;99.90
5924;DHT22;2987;50.884;14.818;2023-07-30T14:51:10;24.20;99.90
5924;DHT22;2987;50.884;14.818;2023-07-30T14:53:36;24.10;99.90
5924;DHT22;2987;50.884;14.818;2023-07-30T14:56:02;24.10;99.90
5924;DHT22;2987;50.884;14.818;2023-07-30T14:58:29;24.10;99.90
5924;DHT22;2987;50.884;14.818;2023-07-30T15:00:55;24.20;99.90
5924;DHT22;2987;50.884;14.818;2023-07-30T15:03:21;24.30;99.90
5924;DHT22;2987;50.884;14.818;2023-07-30T15:05:47;24.20;99.90
5924;DHT22;2987;50.884;14.818;2023-07-30T15:08:13;24.00;99.90
5924;DHT22;2987;50.884;14.818;2023-07-30T15:10:39;23.60;99.90
5924;DHT22;2987;50.884;14.818;2023-07-30T15:13:05;23.50;99.90
5924;DHT22;2987;50.884;14.818;2023-07-30T15:15:31;23.40;99.90
5924;DHT22;2987;50.884;14.818;2023-07-30T15:17:57;23.30;99.90
5924;DHT22;2987;50.884;14.818;2023-07-30T15:20:23;23.10;99.90
5924;DHT22;2987;50.884;14.818;2023-07-30T15:22:49;22.90;99.90
5924;DHT22;2987;50.884;14.818;2023-07-30T15:25:17;22.80;99.90
5924;DHT22;2987;50.884;14.818;2023-07-30T15:27:43;22.80;99.90
5924;DHT22;2987;50.884;14.818;2023-07-30T15:30:09;22.60;99.90
5924;DHT22;2987;50.884;14.818;2023-07-30T15:32:43;22.60;99.90
5924;DHT22;2987;50.884;14.818;2023-07-30T15:35:10;22.60;99.90
5924;DHT22;2987;50.884;14.818;2023-07-30T15:37:37;22.60;99.90
5924;DHT22;2987;50.884;14.818;2023-07-30T15:40:03;22.50;99.90
5924;DHT22;2987;50.884;14.818;2023-07-30T15:42:30;22.40;99.90
5924;DHT22;2987;50.884;14.818;2023-07-30T15:44:56;22.30;99.90
5924;DHT22;2987;50.884;14.818;2023-07-30T15:47:22;22.20;99.90
5924;DHT22;2987;50.884;14.818;2023-07-30T15:49:48;22.00;99.90